Kralendijk, Bonaire, Dutch Antilles Cruise Port

Bonaire has consistently been ranked as the finest snorkeling and scuba diving destination in the Caribbean for two decades. This is because of the island's diligent stewardship of its marine resources. Since 1979, all the waters of Bonaire's coast have been legally protected.

Besides snorkeling and scuba diving, there is plenty more to be done here. Bonaire has trade winds that are usually steady and wash over the island. This creates ideal conditions for windsurfing. The sere beauty of this semi-desert landscape is home to an assortment of wildlife. Atop the rock formations of Washington Slagbaai you can find iguanas toasting themselves, while they watch a vast cloud of orange-pink flamingoes drift across the bone-white salt flats. The divi-divi trees bending into the surreal sculptures of the wind, and towering cacti represent the Caribbean's diverse ecology.

Another great thing about Bonaire is that it has a yearly average temperature of 82 degrees F (27.8 degrees C) with an average water temperature of 80 degrees F (26.7 degrees C). All year, Bonaire is not likely to see more than 22 inches (56 cm) of rain. This can be attributed to its nearly constant humidity of 76% and year round sunny forecast.

Cruise Deals Including Bonaire

Date Ship Nts Destination Inside Oceanview Balcony Suite Per Night
2020-01-24 Explorer Of The Seas 9 Southern Caribbean $ 899 pp $ 999 pp $ 1791 pp N/A $ 100 pp/pd
2020-01-28 Seven Seas Explorer 14 Eastern Caribbean N/A N/A N/A $ 77199 pp $ 5514 pp/pd
2020-02-01 Adventure Of The Seas 8 Southern Caribbean $ 799 pp $ 1099 pp $ 1581 pp N/A $ 100 pp/pd
2020-02-06 Epic 10 Caribbean $ 1207 pp N/A $ 1298 pp $ 1508 pp $ 121 pp/pd
2020-02-15 Crown Princess 20 Caribbean $ 2676 pp $ 2775 pp $ 5359 pp N/A $ 134 pp/pd
2020-02-21 Explorer Of The Seas 9 Southern Caribbean $ 1399 pp N/A N/A N/A $ 155 pp/pd
2020-02-23 Koningsdam 21 Southern Caribbean $ 2139 pp $ 2784 pp $ 3569 pp $ 4679 pp $ 102 pp/pd
2020-02-26 Riviera 14 Caribbean $ 3199 pp N/A N/A N/A $ 229 pp/pd
2020-02-29 Adventure Of The Seas 8 Southern Caribbean $ 899 pp $ 1199 pp $ 1712 pp N/A $ 112 pp/pd
2020-03-01 Epic 7 Caribbean $ 773 pp N/A $ 1060 pp $ 1445 pp $ 110 pp/pd
2020-03-02 Reflection 11 Western Caribbean $ 2029 pp $ 2129 pp $ 2329 pp N/A $ 184 pp/pd
2020-03-08 Freedom Of The Seas 7 Southern Caribbean $ 743 pp $ 950 pp $ 1928 pp $ 2540 pp $ 106 pp/pd
2020-03-12 Seven Seas Explorer 12 Eastern Caribbean N/A N/A N/A $ 7399 pp $ 617 pp/pd
2020-03-14 Summit 7 Southern Caribbean $ 749 pp $ 919 pp $ 1419 pp N/A $ 107 pp/pd
2020-03-16 Crown Princess 10 Southern Caribbean $ 1049 pp $ 1164 pp $ 2399 pp $ 2899 pp $ 105 pp/pd
2020-03-18 Sirena 14 Caribbean $ 2499 pp $ 2899 pp N/A N/A $ 179 pp/pd
2020-03-21 Caribbean Princess 14 Caribbean $ 1299 pp $ 1442 pp $ 2099 pp N/A $ 93 pp/pd
2020-03-22 Freedom Of The Seas 7 Southern Caribbean $ 638 pp $ 939 pp $ 1472 pp $ 2549 pp $ 91 pp/pd
2020-03-27 Silhouette 9 Southern Caribbean $ 1529 pp $ 1639 pp $ 1999 pp N/A $ 161 pp/pd
2020-03-28 Adventure Of The Seas 8 Southern Caribbean $ 999 pp $ 1249 pp $ 1889 pp N/A $ 125 pp/pd
2020-03-29 Dawn 11 Caribbean $ 885 pp $ 1053 pp $ 1711 pp $ 2173 pp $ 80 pp/pd
2020-04-01 Seven Seas Splendor 15 Eastern Caribbean N/A N/A N/A $ 9299 pp $ 620 pp/pd
2020-04-05 Freedom Of The Seas 7 Southern Caribbean $ 679 pp $ 960 pp $ 1209 pp $ 2771 pp $ 97 pp/pd
2020-04-11 Summit 7 Southern Caribbean $ 809 pp $ 959 pp $ 1339 pp N/A $ 116 pp/pd
2020-04-13 Reflection 11 Western Caribbean $ 1609 pp $ 1639 pp $ 1839 pp N/A $ 144 pp/pd
2020-04-19 Freedom Of The Seas 7 Southern Caribbean $ 791 pp $ 989 pp $ 1728 pp $ 2062 pp $ 113 pp/pd
2020-04-25 Adventure Of The Seas 8 Southern Caribbean $ 1099 pp $ 1364 pp $ 1899 pp $ 3217 pp $ 137 pp/pd
2020-05-02 Horizon 8 Southern Caribbean $ 919 pp $ 1059 pp $ 1369 pp $ 2136 pp $ 115 pp/pd
2020-05-03 Freedom Of The Seas 7 Southern Caribbean $ 697 pp $ 821 pp $ 1194 pp $ 1562 pp $ 100 pp/pd
2020-05-13 Equinox 10 Southern Caribbean $ 1759 pp $ 2099 pp $ 2459 pp N/A $ 172 pp/pd
2020-05-16 Horizon 8 Southern Caribbean $ 934 pp $ 1129 pp $ 1399 pp $ 2291 pp $ 117 pp/pd
2020-05-17 Freedom Of The Seas 7 Southern Caribbean $ 769 pp $ 965 pp $ 1435 pp $ 1747 pp $ 110 pp/pd
2020-05-31 Freedom Of The Seas 7 Southern Caribbean $ 790 pp $ 881 pp $ 1114 pp $ 1541 pp $ 113 pp/pd
2020-06-13 Horizon 8 Southern Caribbean $ 1124 pp $ 1399 pp $ 1739 pp $ 3339 pp $ 141 pp/pd
2020-06-14 Freedom Of The Seas 7 Southern Caribbean $ 963 pp $ 1014 pp $ 1331 pp $ 1670 pp $ 138 pp/pd
2020-06-27 Horizon 8 Southern Caribbean $ 1144 pp $ 1359 pp $ 1799 pp N/A $ 143 pp/pd
2020-06-28 Freedom Of The Seas 7 Southern Caribbean $ 939 pp $ 1231 pp $ 1525 pp $ 2047 pp $ 134 pp/pd
2020-07-04 Magic 8 Southern Caribbean $ 1029 pp $ 1289 pp $ 1549 pp N/A $ 129 pp/pd
2020-07-12 Freedom Of The Seas 7 Southern Caribbean $ 864 pp $ 967 pp $ 1166 pp $ 1487 pp $ 123 pp/pd
2020-07-25 Horizon 8 Southern Caribbean $ 1069 pp $ 1374 pp $ 1699 pp $ 2910 pp $ 134 pp/pd
2020-07-26 Freedom Of The Seas 7 Southern Caribbean $ 850 pp $ 910 pp $ 1320 pp $ 1528 pp $ 121 pp/pd
2020-08-09 Freedom Of The Seas 7 Southern Caribbean $ 624 pp $ 778 pp $ 906 pp $ 1398 pp $ 89 pp/pd
2020-08-22 Horizon 8 Southern Caribbean $ 734 pp $ 974 pp $ 1249 pp $ 1898 pp $ 92 pp/pd
2020-08-23 Freedom Of The Seas 7 Southern Caribbean $ 575 pp $ 802 pp $ 893 pp $ 1336 pp $ 82 pp/pd
2020-08-29 Magic 8 Southern Caribbean $ 629 pp $ 839 pp $ 934 pp $ 1624 pp $ 79 pp/pd
2020-09-04 Equinox 10 Southern Caribbean $ 1369 pp $ 1619 pp $ 2079 pp N/A $ 137 pp/pd
2020-09-05 Horizon 8 Southern Caribbean $ 709 pp $ 849 pp $ 1129 pp $ 1611 pp $ 89 pp/pd
2020-09-06 Freedom Of The Seas 7 Southern Caribbean $ 575 pp $ 662 pp $ 813 pp $ 1122 pp $ 82 pp/pd
2020-09-20 Freedom Of The Seas 7 Southern Caribbean $ 552 pp $ 657 pp $ 800 pp $ 1273 pp $ 79 pp/pd
2020-09-25 Equinox 10 Southern Caribbean $ 1199 pp $ 1369 pp $ 1649 pp N/A $ 120 pp/pd
2020-10-03 Horizon 8 Southern Caribbean $ 719 pp $ 884 pp $ 1149 pp $ 2011 pp $ 90 pp/pd
2020-10-04 Freedom Of The Seas 7 Southern Caribbean $ 693 pp $ 786 pp $ 998 pp $ 1709 pp $ 99 pp/pd
2020-10-16 Breakaway 14 Caribbean $ 1361 pp $ 1949 pp $ 2348 pp $ 2474 pp $ 97 pp/pd
2020-10-17 Summit 12 Repositioning $ 1429 pp $ 1619 pp $ 1899 pp N/A $ 117 pp/pd
2020-10-18 Freedom Of The Seas 7 Southern Caribbean $ 634 pp $ 729 pp $ 1026 pp $ 1534 pp $ 91 pp/pd
2020-10-24 Breeze 8 Southern Caribbean $ 719 pp N/A $ 1199 pp N/A $ 90 pp/pd
2020-10-30 Seven Seas Navigator 16 Bermuda N/A N/A N/A $ 7099 pp $ 444 pp/pd
2020-11-01 Freedom Of The Seas 7 Southern Caribbean $ 690 pp $ 865 pp $ 1106 pp $ 1583 pp $ 99 pp/pd
2020-11-02 Reflection 11 Southern Caribbean $ 1679 pp $ 2139 pp $ 2389 pp N/A $ 149 pp/pd
2020-11-06 Equinox 9 Southern Caribbean $ 1489 pp $ 1809 pp $ 2369 pp N/A $ 162 pp/pd
2020-11-09 Breakaway 13 Caribbean $ 1179 pp $ 1711 pp $ 1893 pp $ 2040 pp $ 91 pp/pd
2020-11-11 Sun 10 Caribbean $ 1011 pp $ 1263 pp $ 1760 pp $ 2390 pp $ 101 pp/pd
2020-11-13 Edge 9 Southern Caribbean $ 2009 pp $ 2299 pp $ 2729 pp N/A $ 220 pp/pd
2020-11-14 Horizon 8 Southern Caribbean $ 689 pp $ 859 pp $ 1099 pp $ 1971 pp $ 86 pp/pd
2020-11-15 Freedom Of The Seas 7 Southern Caribbean $ 685 pp $ 771 pp $ 965 pp $ 1542 pp $ 98 pp/pd
2020-11-20 Explorer Of The Seas 9 Southern Caribbean $ 1179 pp $ 1229 pp $ 1631 pp $ 2629 pp $ 131 pp/pd
2020-11-21 Constellation 11 Southern Caribbean $ 1719 pp $ 1919 pp $ 2499 pp N/A $ 154 pp/pd
2020-11-22 Nieuw Statendam 21 Southern Caribbean $ 2249 pp $ 3199 pp $ 3199 pp $ 5249 pp $ 107 pp/pd
2020-11-29 Freedom Of The Seas 7 Southern Caribbean $ 687 pp $ 699 pp $ 869 pp $ 1329 pp $ 98 pp/pd
2020-11-30 Sky Princess 20 Caribbean $ 2509 pp N/A $ 3343 pp $ 4629 pp $ 125 pp/pd
2020-12-02 Nieuw Statendam 21 Southern Caribbean $ 2049 pp $ 2949 pp $ 2949 pp $ 5249 pp $ 98 pp/pd
2020-12-04 Explorer Of The Seas 9 Southern Caribbean $ 893 pp $ 1051 pp $ 1373 pp $ 2148 pp $ 99 pp/pd
2020-12-05 Summit 7 Southern Caribbean $ 1189 pp $ 1349 pp $ 1709 pp N/A $ 170 pp/pd
2020-12-06 Epic 7 Caribbean $ 920 pp N/A $ 1368 pp $ 1424 pp $ 131 pp/pd
2020-12-09 Sun 10 Caribbean $ 920 pp $ 1172 pp $ 1669 pp $ 2264 pp $ 92 pp/pd
2020-12-10 Sky Princess 10 Southern Caribbean $ 1219 pp N/A $ 1575 pp $ 2299 pp $ 122 pp/pd
2020-12-13 Freedom Of The Seas 7 Southern Caribbean $ 755 pp $ 788 pp $ 1006 pp $ 1425 pp $ 108 pp/pd
2020-12-18 Explorer Of The Seas 9 Southern Caribbean $ 1198 pp $ 1299 pp $ 1629 pp $ 2393 pp $ 133 pp/pd
2020-12-20 Sky Princess 16 Caribbean $ 2929 pp $ 4079 pp $ 3901 pp $ 5549 pp $ 183 pp/pd
2020-12-21 Seven Seas Splendor 14 Eastern Caribbean N/A N/A N/A $ 9799 pp $ 700 pp/pd
2020-12-26 Horizon 8 Southern Caribbean $ 1189 pp $ 1414 pp $ 1869 pp $ 3159 pp $ 149 pp/pd
2020-12-27 Freedom Of The Seas 7 Southern Caribbean $ 1133 pp $ 1305 pp $ 1658 pp N/A $ 162 pp/pd
2020-12-28 Sky Princess 8 Caribbean $ 1439 pp $ 2109 pp $ 2032 pp $ 2829 pp $ 180 pp/pd
2021-01-01 Explorer Of The Seas 9 Southern Caribbean $ 816 pp $ 934 pp $ 1333 pp $ 2223 pp $ 91 pp/pd
2021-01-03 Sun 10 Caribbean $ 899 pp $ 1165 pp $ 1494 pp $ 2075 pp $ 90 pp/pd
2021-01-04 Reflection 11 Southern Caribbean $ 1399 pp $ 2189 pp $ 2369 pp N/A $ 122 pp/pd
2021-01-05 Seven Seas Mariner 51 Transatlantic N/A N/A N/A $ 34099 pp $ 669 pp/pd
2021-01-06 Nieuw Statendam 21 Southern Caribbean $ 2499 pp $ 3599 pp $ 3599 pp $ 6249 pp $ 119 pp/pd
2021-01-09 Horizon 8 Southern Caribbean $ 619 pp $ 824 pp $ 1154 pp $ 2094 pp $ 77 pp/pd
2021-01-10 Freedom Of The Seas 7 Southern Caribbean $ 734 pp $ 844 pp $ 1017 pp $ 1620 pp $ 105 pp/pd
2021-01-11 Pearl 10 Caribbean $ 885 pp $ 1179 pp $ 1585 pp $ 1879 pp $ 89 pp/pd
2021-01-13 Riviera 66 World Cruise $ 16349 pp $ 19249 pp $ 22449 pp $ 30749 pp $ 248 pp/pd
2021-01-14 Seven Seas Splendor 12 Eastern Caribbean N/A N/A N/A $ 7199 pp $ 600 pp/pd
2021-01-15 Explorer Of The Seas 9 Southern Caribbean $ 866 pp $ 1034 pp $ 1433 pp $ 2189 pp $ 96 pp/pd
2021-01-17 Nieuw Statendam 14 Southern Caribbean $ 1599 pp $ 2299 pp $ 2299 pp $ 3899 pp $ 114 pp/pd
2021-01-18 Sun 10 Caribbean $ 899 pp $ 1165 pp $ 1529 pp $ 2159 pp $ 90 pp/pd
2021-01-19 Sky Princess 20 Caribbean $ 2429 pp N/A $ 3228 pp $ 4509 pp $ 121 pp/pd
2021-01-23 Rhapsody Of The Seas 10 Western Caribbean $ 938 pp $ 1087 pp $ 1790 pp $ 4771 pp $ 94 pp/pd
2021-01-24 Freedom Of The Seas 7 Southern Caribbean $ 734 pp $ 844 pp $ 1127 pp $ 1819 pp $ 105 pp/pd
2021-01-25 Reflection 11 Southern Caribbean $ 1599 pp $ 2439 pp $ 2569 pp N/A $ 140 pp/pd
2021-01-29 Explorer Of The Seas 9 Southern Caribbean $ 816 pp $ 984 pp $ 1333 pp $ 2089 pp $ 91 pp/pd
2021-01-30 Radiance 8 Southern Caribbean $ 649 pp $ 799 pp $ 1139 pp $ 1629 pp $ 81 pp/pd
2021-01-31 Epic 7 Caribbean $ 794 pp N/A $ 1368 pp $ 1473 pp $ 113 pp/pd
2021-02-01 Encore 12 Panama Canal $ 1571 pp $ 2299 pp $ 2901 pp $ 3202 pp $ 131 pp/pd
2021-02-06 Horizon 8 Southern Caribbean $ 679 pp $ 909 pp $ 1279 pp $ 2151 pp $ 85 pp/pd
2021-02-07 Epic 7 Caribbean $ 773 pp N/A $ 1270 pp $ 1368 pp $ 110 pp/pd
2021-02-08 Sky Princess 20 Caribbean $ 2379 pp N/A $ 3349 pp $ 4349 pp $ 119 pp/pd
2021-02-12 Explorer Of The Seas 9 Southern Caribbean $ 795 pp $ 1014 pp $ 1362 pp $ 2118 pp $ 88 pp/pd
2021-02-14 Epic 7 Caribbean $ 850 pp N/A $ 1368 pp $ 1557 pp $ 121 pp/pd
2021-02-15 Sun 10 Caribbean $ 934 pp $ 1179 pp $ 1634 pp $ 2369 pp $ 93 pp/pd
2021-02-16 Riviera 22 World Cruise $ 5249 pp $ 6849 pp $ 7849 pp $ 10749 pp $ 239 pp/pd
2021-02-17 Nieuw Statendam 21 Southern Caribbean $ 2699 pp $ 3799 pp $ 3799 pp $ 6549 pp $ 129 pp/pd
2021-02-18 Sky Princess 20 Caribbean $ 2329 pp $ 3429 pp $ 3299 pp $ 4299 pp $ 116 pp/pd
2021-02-19 Equinox 9 Southern Caribbean $ 1599 pp $ 1969 pp $ 1869 pp N/A $ 174 pp/pd
2021-02-21 Freedom Of The Seas 7 Southern Caribbean $ 734 pp $ 844 pp $ 1017 pp $ 1620 pp $ 105 pp/pd
2021-02-26 Riviera 22 World Cruise $ 5449 pp $ 6149 pp $ 7049 pp $ 9849 pp $ 248 pp/pd
2021-02-27 Summit 7 Southern Caribbean $ 989 pp $ 1249 pp $ 1579 pp N/A $ 140 pp/pd
2021-02-28 Sky Princess 20 Caribbean $ 2279 pp $ 3379 pp $ 3249 pp $ 4249 pp $ 114 pp/pd
2021-03-06 Horizon 8 Southern Caribbean $ 764 pp $ 974 pp $ 1344 pp $ 2259 pp $ 96 pp/pd
2021-03-07 Sun 10 Caribbean $ 920 pp $ 1179 pp $ 1704 pp $ 2166 pp $ 92 pp/pd
2021-03-08 Reflection 11 Southern Caribbean $ 1429 pp $ 2189 pp $ 2589 pp N/A $ 126 pp/pd
2021-03-10 Sky Princess 20 Caribbean $ 2279 pp N/A $ 3249 pp $ 4249 pp $ 114 pp/pd
2021-03-12 Equinox 9 Southern Caribbean $ 1689 pp $ 1869 pp $ 2279 pp N/A $ 185 pp/pd
2021-03-14 Epic 7 Caribbean $ 899 pp N/A $ 1368 pp $ 1473 pp $ 128 pp/pd
2021-03-20 Sky Princess 20 Caribbean $ 2279 pp $ 3379 pp $ 3249 pp $ 4249 pp $ 114 pp/pd
2021-03-21 Freedom Of The Seas 7 Southern Caribbean $ 754 pp $ 865 pp $ 1067 pp $ 1662 pp $ 108 pp/pd
2021-03-26 Explorer Of The Seas 9 Southern Caribbean $ 861 pp $ 1029 pp $ 1359 pp $ 2395 pp $ 96 pp/pd
2021-03-27 Summit 7 Southern Caribbean $ 1039 pp $ 1299 pp $ 1629 pp N/A $ 147 pp/pd
2021-03-28 Epic 7 Caribbean $ 899 pp N/A $ 1368 pp $ 1473 pp $ 128 pp/pd
2021-03-29 Constellation 11 Southern Caribbean $ 1664 pp $ 1954 pp $ 2284 pp N/A $ 149 pp/pd
2021-04-02 Equinox 9 Southern Caribbean $ 1619 pp $ 1869 pp $ 2079 pp N/A $ 180 pp/pd
2021-04-03 Seabourn Odyssey 21 Southern Caribbean N/A $ 9999 pp N/A $ 9999 pp $ 476 pp/pd
2021-04-04 Freedom Of The Seas 7 Southern Caribbean $ 744 pp $ 884 pp $ 1087 pp $ 1756 pp $ 106 pp/pd
2021-04-10 Seabourn Odyssey 14 Southern Caribbean N/A $ 6999 pp N/A $ 6999 pp $ 500 pp/pd
2021-04-11 Jade 11 Caribbean $ 920 pp $ 1172 pp $ 1571 pp $ 1774 pp $ 84 pp/pd
2021-04-17 Horizon 8 Southern Caribbean $ 759 pp $ 989 pp $ 1324 pp $ 2201 pp $ 95 pp/pd
2021-04-18 Freedom Of The Seas 7 Southern Caribbean $ 754 pp $ 865 pp $ 1067 pp $ 1662 pp $ 108 pp/pd
2021-04-23 Breakaway 9 Caribbean $ 1228 pp $ 1711 pp $ 2012 pp $ 2250 pp $ 136 pp/pd
2021-04-24 Summit 7 Southern Caribbean $ 939 pp $ 1149 pp $ 1529 pp N/A $ 133 pp/pd
2021-04-27 Seven Seas Navigator 14 Eastern Caribbean N/A N/A N/A $ 5999 pp $ 429 pp/pd
2021-05-01 Horizon 8 Southern Caribbean $ 779 pp $ 979 pp $ 1299 pp $ 2011 pp $ 97 pp/pd
2021-05-14 Breakaway 9 Caribbean $ 1284 pp $ 1620 pp $ 1921 pp $ 2103 pp $ 143 pp/pd
2021-05-16 Seven Seas Navigator 15 Eastern Caribbean N/A N/A N/A $ 4949 pp $ 330 pp/pd
2021-05-29 Horizon 8 Southern Caribbean $ 919 pp $ 1119 pp $ 1449 pp $ 2226 pp $ 115 pp/pd
2021-06-12 Horizon 8 Southern Caribbean $ 979 pp $ 1219 pp $ 1589 pp $ 2319 pp $ 122 pp/pd
2021-07-10 Horizon 8 Southern Caribbean $ 989 pp $ 1229 pp $ 1599 pp $ 2329 pp $ 124 pp/pd
2021-08-07 Horizon 8 Southern Caribbean $ 889 pp $ 1089 pp $ 1419 pp $ 2129 pp $ 111 pp/pd
2021-08-27 Equinox 9 Southern Caribbean $ 1284 pp $ 1344 pp $ 1674 pp N/A $ 138 pp/pd
2021-09-04 Horizon 8 Southern Caribbean $ 619 pp $ 789 pp $ 1039 pp $ 1681 pp $ 77 pp/pd
2021-09-17 Equinox 9 Southern Caribbean $ 1284 pp $ 1344 pp $ 1674 pp N/A $ 138 pp/pd
2021-09-18 Horizon 8 Southern Caribbean $ 619 pp $ 789 pp $ 1039 pp $ 1756 pp $ 77 pp/pd
2021-10-02 Horizon 8 Southern Caribbean $ 619 pp $ 789 pp $ 1039 pp $ 1681 pp $ 77 pp/pd
2021-10-08 Equinox 9 Southern Caribbean $ 1434 pp $ 1494 pp $ 1824 pp N/A $ 155 pp/pd
2021-10-23 Freedom 8 Southern Caribbean $ 569 pp $ 719 pp $ 979 pp $ 1409 pp $ 71 pp/pd
2021-10-29 Equinox 9 Southern Caribbean $ 1434 pp $ 1494 pp $ 1824 pp N/A $ 155 pp/pd
2021-10-30 Horizon 8 Southern Caribbean $ 619 pp $ 789 pp $ 1039 pp $ 1681 pp $ 77 pp/pd
2021-11-07 Brilliance Of The Seas 11 Repositioning $ 811 pp $ 971 pp $ 1580 pp $ 2440 pp $ 74 pp/pd
2021-11-19 Equinox 9 Southern Caribbean $ 1334 pp $ 1394 pp $ 1724 pp N/A $ 144 pp/pd
2021-11-20 Freedom 8 Southern Caribbean $ 639 pp $ 799 pp $ 1059 pp $ 1489 pp $ 80 pp/pd
2021-11-22 Edge 11 Transcanal $ 2049 pp $ 2319 pp $ 2429 pp N/A $ 186 pp/pd
2021-11-27 Horizon 8 Southern Caribbean $ 599 pp $ 769 pp $ 1019 pp $ 1661 pp $ 75 pp/pd
2021-11-28 Freedom Of The Seas 7 Southern Caribbean $ 739 pp $ 895 pp $ 1103 pp $ 2208 pp $ 106 pp/pd
2021-12-06 Sunshine 10 Southern Caribbean $ 819 pp $ 1089 pp $ 1489 pp $ 2439 pp $ 82 pp/pd
2021-12-13 Discovery Princess 16 Caribbean $ 2519 pp N/A $ 3277 pp $ 4199 pp $ 157 pp/pd
2021-12-18 Freedom 8 Southern Caribbean $ 899 pp $ 1079 pp $ 1429 pp $ 1909 pp $ 112 pp/pd
2021-12-21 Discovery Princess 16 Caribbean $ 2659 pp N/A $ 3569 pp $ 4569 pp $ 166 pp/pd
2021-12-24 Edge 11 Transcanal $ 2699 pp $ 2979 pp $ 3479 pp N/A $ 243 pp/pd
2022-01-03 Constellation 11 Southern Caribbean $ 1299 pp $ 1499 pp $ 2199 pp N/A $ 114 pp/pd
2022-01-08 Horizon 8 Southern Caribbean $ 629 pp $ 829 pp $ 1179 pp $ 1819 pp $ 79 pp/pd
2022-01-15 Freedom 8 Southern Caribbean $ 589 pp $ 739 pp $ 999 pp $ 1479 pp $ 74 pp/pd
2022-01-21 Equinox 9 Southern Caribbean $ 1434 pp $ 1694 pp $ 2124 pp N/A $ 155 pp/pd
2022-01-22 Horizon 8 Southern Caribbean $ 679 pp $ 899 pp $ 1259 pp $ 1899 pp $ 85 pp/pd
2022-01-23 Freedom Of The Seas 7 Southern Caribbean $ 869 pp $ 1012 pp $ 1233 pp $ 2363 pp $ 124 pp/pd
2022-01-24 Edge 11 Southern Caribbean $ 1779 pp $ 1959 pp $ 2259 pp N/A $ 159 pp/pd
2022-02-03 Seven Seas Splendor 14 Eastern Caribbean N/A N/A N/A $ 7799 pp $ 557 pp/pd
2022-02-05 Seven Seas Navigator 10 Eastern Caribbean N/A N/A N/A $ 4699 pp $ 470 pp/pd
2022-02-11 Equinox 9 Southern Caribbean $ 1434 pp $ 1694 pp $ 2124 pp N/A $ 155 pp/pd
2022-02-12 Freedom 8 Southern Caribbean $ 649 pp $ 799 pp $ 1089 pp $ 1569 pp $ 81 pp/pd
2022-02-14 Edge 11 Transcanal $ 1949 pp $ 2219 pp $ 2319 pp N/A $ 177 pp/pd
2022-02-19 Horizon 8 Southern Caribbean $ 709 pp $ 909 pp $ 1259 pp $ 1899 pp $ 89 pp/pd
2022-02-20 Freedom Of The Seas 7 Southern Caribbean $ 869 pp $ 1012 pp $ 1233 pp $ 2363 pp $ 124 pp/pd
2022-03-04 Equinox 9 Southern Caribbean $ 1434 pp $ 1694 pp $ 2124 pp N/A $ 155 pp/pd
2022-03-07 Edge 11 Southern Caribbean $ 1859 pp $ 2059 pp $ 2369 pp N/A $ 164 pp/pd
2022-03-12 Freedom 8 Southern Caribbean $ 689 pp $ 849 pp $ 1139 pp $ 1589 pp $ 86 pp/pd
2022-03-17 Seven Seas Navigator 15 Eastern Caribbean N/A N/A N/A $ 5149 pp $ 343 pp/pd
2022-03-19 Horizon 8 Southern Caribbean $ 789 pp $ 989 pp $ 1339 pp $ 1979 pp $ 99 pp/pd
2022-03-20 Freedom Of The Seas 7 Southern Caribbean $ 934 pp $ 1128 pp $ 1362 pp $ 2468 pp $ 133 pp/pd
2022-03-25 Equinox 9 Southern Caribbean $ 1434 pp $ 1694 pp $ 2124 pp N/A $ 155 pp/pd
2022-03-28 Edge 11 Transcanal $ 1899 pp $ 2179 pp $ 2269 pp N/A $ 173 pp/pd
2022-04-15 Equinox 9 Southern Caribbean $ 1434 pp $ 1694 pp $ 2124 pp N/A $ 155 pp/pd
2022-04-16 Horizon 8 Southern Caribbean $ 759 pp $ 959 pp $ 1309 pp $ 1949 pp $ 95 pp/pd
2022-04-17 Freedom Of The Seas 7 Southern Caribbean $ 895 pp $ 1051 pp $ 1310 pp $ 2416 pp $ 128 pp/pd
2022-04-30 Horizon 8 Southern Caribbean $ 749 pp $ 949 pp $ 1279 pp $ 1919 pp $ 94 pp/pd
2022-06-06 Crystal Esprit 7 Mediterranean N/A N/A N/A $ 8698 pp $ 1243 pp/pd

Best Cruise Deals from US Ports

Baltimore
Boston
Tampa
Cape Liberty
Charleston
Ft. Lauderdale
Galveston
Jacksonville
Los Angeles
Miami
Mobile
New York
Norfolk
San Diego
San Francisco
Seattle

Cruise Deals by Cruise Line

Azamara
Carnival
Celebrity
Cunard
Disney
Holland America
Norwegian
Oceania
Princess
Regent
Royal Caribbean
Seabourn

Cruise Deals to Popular Destinations

Alaska
Bahamas
Bermuda
Canada New England
Caribbean
Eastern Caribbean
Southern Caribbean
Western Caribbean
Europe
Northern Europe
Western Europe
Hawaii
Mediterranean
Eastern Mediterranean
Western Mediterranean
Mexico
Mexican Riviera
Panama Canal
South America
South Pacific
Southeast Asia
Transatlantic
Transpacific